Time;durP1;ratioP1;P1;durP2;ratioP2;P2;SDS_P1;SDS_P2;PMS_P1;PMS_P2;Temp;Humidity;BMP_temperature;BMP_pressure;BME280_temperature;BME280_humidity;BME280_pressure;Samples;Min_cycle;Max_cycle;Signal;HPM_P1;HPM_P2
2023/09/04 00:00:43;;;;;;;6.18;3.40;;;25.00;96.70;;;;;;5048859;28;20068;-73
2023/09/04 00:03:12;;;;;;;5.43;3.60;;;25.00;96.70;;;;;;5052516;28;20051;-72
2023/09/04 00:05:42;;;;;;;5.40;3.58;;;25.00;96.70;;;;;;5048224;28;20483;-73
2023/09/04 00:08:11;;;;;;;4.65;3.67;;;24.90;96.70;;;;;;5056006;28;20152;-72
2023/09/04 00:10:39;;;;;;;4.30;3.58;;;25.00;96.70;;;;;;5046347;28;20486;-72
2023/09/04 00:13:07;;;;;;;7.25;4.25;;;24.90;96.70;;;;;;5048762;28;20086;-72
2023/09/04 00:15:36;;;;;;;4.55;3.38;;;25.00;96.70;;;;;;5052653;28;20124;-72
2023/09/04 00:18:04;;;;;;;6.30;3.97;;;24.90;96.70;;;;;;5051371;28;20045;-72
2023/09/04 00:20:33;;;;;;;3.95;2.90;;;24.90;96.70;;;;;;5050438;28;20615;-72
2023/09/04 00:23:03;;;;;;;5.80;3.42;;;24.90;96.70;;;;;;5056760;28;20049;-72
2023/09/04 00:25:32;;;;;;;7.22;3.30;;;24.80;96.70;;;;;;5045401;28;20052;-73
2023/09/04 00:28:00;;;;;;;5.30;2.97;;;24.80;96.70;;;;;;5047925;28;20088;-73
2023/09/04 00:30:28;;;;;;;6.28;3.00;;;24.80;96.70;;;;;;5047630;28;20052;-72
2023/09/04 00:32:57;;;;;;;4.53;2.80;;;24.80;96.70;;;;;;5051266;28;20102;-72
2023/09/04 00:35:26;;;;;;;4.32;2.63;;;24.80;96.70;;;;;;5030787;28;20201;-72
2023/09/04 00:37:54;;;;;;;4.13;2.40;;;24.70;96.70;;;;;;5046413;28;21162;-72
2023/09/04 00:40:24;;;;;;;6.15;2.90;;;24.70;96.70;;;;;;5047672;28;20072;-72
2023/09/04 00:42:52;;;;;;;5.03;2.85;;;24.60;96.70;;;;;;5048144;28;20044;-72
2023/09/04 00:45:21;;;;;;;3.50;2.60;;;24.60;96.70;;;;;;5048118;28;20044;-72
2023/09/04 00:47:50;;;;;;;4.13;2.60;;;24.50;96.70;;;;;;5047610;28;20044;-72
2023/09/04 00:50:23;;;;;;;6.13;3.00;;;24.50;96.70;;;;;;5037927;28;20059;-72
2023/09/04 00:52:53;;;;;;;4.18;2.83;;;24.50;96.70;;;;;;5047479;28;20518;-72
2023/09/04 00:55:24;;;;;;;4.18;3.08;;;24.50;96.70;;;;;;5051606;28;20048;-71
2023/09/04 00:57:53;;;;;;;6.15;2.88;;;24.60;96.70;;;;;;5047541;28;20056;-72
2023/09/04 01:00:27;;;;;;;4.97;2.90;;;24.50;96.70;;;;;;5047093;28;20044;-72
2023/09/04 01:02:59;;;;;;;4.78;2.85;;;24.40;96.70;;;;;;5038214;28;20063;-72
2023/09/04 01:05:30;;;;;;;5.45;2.90;;;24.40;96.70;;;;;;5032414;28;20629;-72
2023/09/04 01:07:59;;;;;;;6.20;2.67;;;24.30;96.70;;;;;;5047798;28;20047;-72
2023/09/04 01:10:39;;;;;;;5.18;3.25;;;24.30;96.70;;;;;;5048240;28;20033;-72
2023/09/04 01:13:22;;;;;;;4.13;2.50;;;24.30;96.70;;;;;;5036939;28;20671;-72
2023/09/04 01:15:52;;;;;;;7.65;2.65;;;24.20;96.70;;;;;;5047416;28;20041;-72
2023/09/04 01:18:22;;;;;;;3.92;2.63;;;24.30;96.70;;;;;;5059023;28;20040;-72
2023/09/04 01:21:02;;;;;;;6.88;2.38;;;24.20;96.70;;;;;;5046450;28;20052;-71
2023/09/04 01:23:32;;;;;;;5.32;2.92;;;24.20;96.70;;;;;;5046719;28;20376;-72
2023/09/04 01:26:10;;;;;;;3.17;2.38;;;24.30;96.70;;;;;;5046958;28;20045;-71
2023/09/04 01:28:50;;;;;;;4.78;2.50;;;24.20;96.70;;;;;;5030493;28;20048;-72
2023/09/04 01:31:23;;;;;;;4.70;2.55;;;24.20;96.70;;;;;;5057857;28;20044;-73
2023/09/04 01:33:57;;;;;;;5.50;3.08;;;24.20;96.70;;;;;;5043249;28;20045;-72
2023/09/04 01:36:32;;;;;;;4.95;2.72;;;24.20;96.70;;;;;;5047053;28;20126;-73
2023/09/04 01:39:01;;;;;;;3.65;2.63;;;24.30;96.70;;;;;;5045411;28;20060;-71
2023/09/04 01:41:29;;;;;;;4.35;2.92;;;24.20;96.70;;;;;;5043731;28;20129;-71
2023/09/04 01:43:59;;;;;;;5.10;2.75;;;24.20;96.70;;;;;;5047692;28;20051;-72
2023/09/04 01:46:28;;;;;;;3.95;2.60;;;24.20;96.70;;;;;;5046515;28;20044;-72
2023/09/04 01:48:57;;;;;;;4.88;3.08;;;24.10;96.70;;;;;;5043180;28;20056;-71
2023/09/04 01:51:27;;;;;;;4.57;2.65;;;24.20;96.70;;;;;;5045870;28;20045;-72
2023/09/04 01:53:55;;;;;;;3.70;2.50;;;24.10;96.70;;;;;;5043988;28;20056;-72
2023/09/04 01:56:23;;;;;;;3.33;2.80;;;24.10;96.70;;;;;;5046234;28;20058;-72
2023/09/04 01:58:52;;;;;;;5.50;3.20;;;24.10;96.70;;;;;;5046555;28;20053;-72
2023/09/04 02:01:20;;;;;;;5.65;2.67;;;24.10;96.70;;;;;;5046165;28;20128;-72
2023/09/04 02:03:56;;;;;;;6.40;2.92;;;24.10;96.70;;;;;;5046004;28;20056;-72
2023/09/04 02:06:28;;;;;;;4.22;2.47;;;24.10;96.70;;;;;;5022646;28;20050;-72
2023/09/04 02:08:57;;;;;;;4.82;2.75;;;24.10;96.70;;;;;;5010092;28;20049;-72
2023/09/04 02:11:25;;;;;;;4.38;2.65;;;24.10;96.70;;;;;;5005073;28;20045;-72
2023/09/04 02:13:54;;;;;;;3.33;2.55;;;24.00;96.70;;;;;;5005416;28;20067;-72
2023/09/04 02:16:23;;;;;;;5.07;2.88;;;23.90;96.70;;;;;;5013858;28;20610;-72
2023/09/04 02:18:52;;;;;;;6.28;3.45;;;23.80;96.70;;;;;;5026151;28;20057;-72
2023/09/04 02:21:20;;;;;;;6.72;3.30;;;23.80;96.70;;;;;;5024636;28;20512;-72
2023/09/04 02:23:50;;;;;;;3.30;2.70;;;23.80;96.70;;;;;;5024585;28;20140;-72
2023/09/04 02:26:19;;;;;;;6.22;3.03;;;23.70;96.70;;;;;;5017808;28;20562;-72
2023/09/04 02:28:48;;;;;;;3.72;2.85;;;23.70;96.70;;;;;;5024580;28;20041;-72
2023/09/04 02:31:16;;;;;;;3.38;2.67;;;23.60;96.70;;;;;;5014449;28;20078;-72
2023/09/04 02:33:45;;;;;;;7.15;3.15;;;23.60;96.70;;;;;;5013706;28;20494;-72
2023/09/04 02:36:15;;;;;;;4.55;2.80;;;23.60;96.70;;;;;;5018288;28;20523;-72
2023/09/04 02:38:44;;;;;;;4.40;2.72;;;23.50;96.70;;;;;;5006906;28;20407;-71
2023/09/04 02:41:14;;;;;;;4.47;2.50;;;23.50;96.70;;;;;;5025609;28;20072;-73
2023/09/04 02:43:42;;;;;;;4.03;2.78;;;23.50;96.70;;;;;;5024013;28;20126;-73
2023/09/04 02:46:11;;;;;;;4.40;2.88;;;23.50;96.70;;;;;;5024294;28;20034;-72
2023/09/04 02:48:40;;;;;;;2.80;2.47;;;23.50;96.70;;;;;;5011868;28;20052;-73
2023/09/04 02:51:08;;;;;;;4.40;2.70;;;23.50;96.70;;;;;;5016894;28;20535;-71
2023/09/04 02:53:37;;;;;;;3.00;2.40;;;23.50;96.70;;;;;;5004980;28;20149;-72
2023/09/04 02:56:05;;;;;;;4.13;2.38;;;23.50;96.70;;;;;;5023147;28;20464;-72
2023/09/04 02:58:35;;;;;;;3.63;3.10;;;23.50;96.70;;;;;;5014235;28;20076;-72
2023/09/04 03:01:04;;;;;;;4.35;2.63;;;23.50;96.70;;;;;;5024073;28;20065;-72
2023/09/04 03:03:32;;;;;;;3.90;2.92;;;23.50;96.70;;;;;;5023892;28;20041;-72
2023/09/04 03:06:07;;;;;;;6.35;2.70;;;23.40;96.70;;;;;;5028796;28;20144;-72
2023/09/04 03:08:37;;;;;;;4.88;2.47;;;23.40;96.70;;;;;;5022155;28;20049;-72
2023/09/04 03:11:09;;;;;;;5.78;2.95;;;23.50;96.70;;;;;;5021978;28;20049;-72
2023/09/04 03:13:39;;;;;;;7.95;2.60;;;23.40;96.70;;;;;;5007961;28;20045;-71
2023/09/04 03:16:08;;;;;;;3.58;3.10;;;23.50;96.70;;;;;;5023955;28;20044;-72
2023/09/04 03:18:37;;;;;;;3.90;2.67;;;23.40;96.70;;;;;;5046248;28;20312;-72
2023/09/04 03:21:06;;;;;;;4.40;2.72;;;23.40;96.70;;;;;;5021981;28;20050;-72
2023/09/04 03:23:35;;;;;;;3.10;2.80;;;23.50;96.70;;;;;;5021989;28;20057;-72
2023/09/04 03:26:04;;;;;;;4.00;2.88;;;23.50;96.70;;;;;;5022423;28;20059;-72
2023/09/04 03:28:33;;;;;;;4.10;3.00;;;23.60;96.70;;;;;;5023996;28;20072;-72
2023/09/04 03:31:04;;;;;;;3.85;3.20;;;23.50;96.70;;;;;;5025914;28;20151;-73
2023/09/04 03:33:33;;;;;;;4.55;2.78;;;23.50;96.70;;;;;;5025471;28;20065;-72
2023/09/04 03:36:04;;;;;;;9.63;3.47;;;23.40;96.70;;;;;;5025832;28;20049;-72
2023/09/04 03:38:32;;;;;;;3.80;2.65;;;23.40;96.70;;;;;;5025949;28;20050;-72
2023/09/04 03:41:01;;;;;;;4.95;2.83;;;23.40;96.70;;;;;;5009603;28;20046;-72
2023/09/04 03:43:29;;;;;;;4.50;2.63;;;23.30;96.70;;;;;;5027092;28;20056;-72
2023/09/04 03:45:58;;;;;;;5.85;2.80;;;23.20;96.70;;;;;;5027469;28;20037;-72
2023/09/04 03:48:28;;;;;;;5.25;2.88;;;23.20;96.70;;;;;;5025621;28;20046;-73
2023/09/04 03:50:59;;;;;;;3.67;2.78;;;23.10;96.70;;;;;;5003416;28;20121;-72
2023/09/04 03:53:28;;;;;;;5.13;2.83;;;23.10;96.70;;;;;;5025863;28;20057;-73
2023/09/04 03:56:03;;;;;;;11.60;3.30;;;23.20;96.70;;;;;;5025678;28;20050;-72
2023/09/04 03:58:32;;;;;;;3.83;3.08;;;23.20;96.70;;;;;;5009371;28;20049;-72
2023/09/04 04:01:03;;;;;;;4.80;3.05;;;23.20;96.70;;;;;;5025792;28;20045;-73
2023/09/04 04:03:34;;;;;;;4.47;3.42;;;23.20;96.70;;;;;;5027263;28;20435;-71
2023/09/04 04:06:11;;;;;;;4.97;3.20;;;23.10;96.70;;;;;;5009145;28;20141;-72
2023/09/04 04:08:40;;;;;;;5.70;2.97;;;23.20;96.70;;;;;;5008292;28;20049;-72
2023/09/04 04:11:10;;;;;;;4.57;3.00;;;23.20;96.70;;;;;;5001053;28;20065;-72
2023/09/04 04:13:38;;;;;;;4.75;2.92;;;23.20;96.70;;;;;;5013693;28;20060;-72
2023/09/04 04:16:11;;;;;;;7.00;3.33;;;23.20;96.70;;;;;;5015791;28;20050;-73
2023/09/04 04:18:41;;;;;;;4.10;2.90;;;23.20;96.70;;;;;;5029812;28;20045;-72
2023/09/04 04:21:10;;;;;;;6.05;2.88;;;23.20;96.70;;;;;;5015965;28;20590;-72
2023/09/04 04:23:38;;;;;;;6.15;3.20;;;23.20;96.70;;;;;;5016832;28;20088;-72
2023/09/04 04:26:11;;;;;;;4.95;2.70;;;23.00;96.70;;;;;;5026140;28;20065;-72
2023/09/04 04:28:40;;;;;;;5.65;2.83;;;23.00;96.70;;;;;;5018664;28;20080;-71
2023/09/04 04:31:08;;;;;;;4.28;3.05;;;23.00;96.70;;;;;;5024817;28;20052;-72
2023/09/04 04:33:37;;;;;;;4.95;2.92;;;23.10;96.70;;;;;;5007909;28;20045;-72
2023/09/04 04:36:08;;;;;;;5.25;3.33;;;23.00;96.70;;;;;;5017187;28;20605;-71
2023/09/04 04:38:51;;;;;;;4.70;2.80;;;22.90;96.70;;;;;;5010487;28;20060;-72
2023/09/04 04:41:19;;;;;;;4.65;2.92;;;23.00;96.70;;;;;;5022934;28;20065;-72
2023/09/04 04:43:48;;;;;;;4.90;2.88;;;23.00;96.70;;;;;;5007512;28;20073;-72
2023/09/04 04:46:17;;;;;;;7.35;3.00;;;23.00;96.70;;;;;;5015827;28;20044;-72
2023/09/04 04:48:46;;;;;;;3.17;2.80;;;23.00;96.70;;;;;;5015888;28;20053;-72
2023/09/04 04:51:16;;;;;;;5.38;3.03;;;22.90;96.70;;;;;;5026163;28;20050;-72
2023/09/04 04:53:44;;;;;;;4.72;2.90;;;22.80;96.70;;;;;;5009488;28;20060;-72
2023/09/04 04:56:13;;;;;;;4.38;2.85;;;22.80;96.70;;;;;;5005990;28;20048;-71
2023/09/04 04:58:41;;;;;;;4.70;3.00;;;22.80;96.70;;;;;;5007244;28;20049;-72
2023/09/04 05:01:09;;;;;;;4.25;2.83;;;22.90;96.70;;;;;;4999874;28;20466;-73
2023/09/04 05:03:38;;;;;;;5.80;3.10;;;22.90;96.70;;;;;;5012244;28;20132;-72
2023/09/04 05:06:08;;;;;;;6.32;3.53;;;23.00;96.70;;;;;;5020457;28;20072;-72
2023/09/04 05:08:38;;;;;;;6.15;2.90;;;23.00;96.70;;;;;;5024278;28;20583;-71
2023/09/04 05:11:08;;;;;;;10.25;4.65;;;22.90;96.70;;;;;;5023987;28;20045;-72
2023/09/04 05:13:38;;;;;;;9.98;3.10;;;23.00;96.70;;;;;;5024358;28;20068;-72
2023/09/04 05:16:07;;;;;;;7.93;3.22;;;23.00;96.70;;;;;;5025799;28;20470;-72
2023/09/04 05:18:37;;;;;;;9.60;3.47;;;22.90;96.70;;;;;;5008037;28;20407;-72
2023/09/04 05:21:07;;;;;;;6.07;3.40;;;22.90;96.70;;;;;;5025518;28;20045;-72
2023/09/04 05:23:36;;;;;;;8.88;3.83;;;22.80;96.70;;;;;;5023628;28;20046;-72
2023/09/04 05:26:09;;;;;;;9.73;3.47;;;22.80;96.70;;;;;;5007784;28;20053;-71
2023/09/04 05:28:38;;;;;;;6.85;3.63;;;22.80;96.70;;;;;;5023999;28;20419;-72
2023/09/04 05:31:06;;;;;;;8.68;4.53;;;22.90;96.70;;;;;;5023764;28;20626;-71
2023/09/04 05:33:34;;;;;;;6.35;3.80;;;22.80;96.70;;;;;;5023678;28;20056;-73
2023/09/04 05:36:03;;;;;;;4.32;3.53;;;22.80;96.70;;;;;;5024999;28;20037;-72
2023/09/04 05:38:32;;;;;;;5.25;3.97;;;23.00;96.70;;;;;;5024992;28;20115;-72
2023/09/04 05:41:00;;;;;;;6.53;4.28;;;23.10;96.70;;;;;;5023611;28;20049;-73
2023/09/04 05:43:30;;;;;;;5.45;3.65;;;23.10;96.70;;;;;;5023849;28;20591;-72
2023/09/04 05:45:59;;;;;;;6.95;3.38;;;23.20;96.70;;;;;;5025291;28;20053;-72
2023/09/04 05:48:28;;;;;;;5.05;3.25;;;23.30;96.70;;;;;;5024663;28;20046;-71
2023/09/04 05:50:57;;;;;;;6.60;3.70;;;23.40;96.70;;;;;;5015706;28;20330;-72
2023/09/04 05:53:25;;;;;;;6.05;4.00;;;23.40;96.70;;;;;;5024532;28;20057;-72
2023/09/04 05:56:04;;;;;;;7.38;3.92;;;23.30;96.70;;;;;;5023380;28;20049;-72
2023/09/04 05:58:34;;;;;;;8.43;4.32;;;23.30;96.70;;;;;;5025580;28;20075;-72
2023/09/04 06:01:02;;;;;;;6.53;3.60;;;23.40;96.70;;;;;;5023346;28;20454;-71
2023/09/04 06:03:31;;;;;;;10.13;4.53;;;23.40;96.70;;;;;;5024858;28;20038;-72
2023/09/04 06:06:00;;;;;;;6.97;4.18;;;23.50;96.70;;;;;;5050034;28;20643;-72
2023/09/04 06:08:30;;;;;;;8.57;4.43;;;23.50;96.70;;;;;;5046803;28;20407;-72
2023/09/04 06:10:58;;;;;;;8.27;4.40;;;23.60;96.70;;;;;;5046177;28;20052;-72
2023/09/04 06:13:27;;;;;;;8.93;5.28;;;23.60;96.70;;;;;;5028991;28;20106;-71
2023/09/04 06:15:58;;;;;;;8.35;4.20;;;23.70;96.70;;;;;;5046326;28;20040;-72
2023/09/04 06:18:29;;;;;;;8.10;4.50;;;23.70;96.70;;;;;;5047262;28;20032;-72
2023/09/04 06:20:58;;;;;;;6.97;4.43;;;23.80;96.70;;;;;;5043195;28;20048;-72
2023/09/04 06:23:26;;;;;;;7.80;4.88;;;23.90;96.70;;;;;;5046517;28;20115;-72
2023/09/04 06:25:54;;;;;;;9.45;4.82;;;24.10;96.70;;;;;;5045428;28;20084;-72
2023/09/04 06:28:23;;;;;;;10.82;5.15;;;24.20;96.70;;;;;;5028765;28;20510;-72
2023/09/04 06:30:52;;;;;;;8.60;5.18;;;24.30;96.70;;;;;;5053423;28;20040;-72
2023/09/04 06:33:24;;;;;;;7.00;4.57;;;24.40;96.70;;;;;;5046339;28;20052;-72
2023/09/04 06:35:54;;;;;;;8.30;5.05;;;24.50;96.70;;;;;;5044575;28;20041;-72
2023/09/04 06:38:22;;;;;;;8.65;5.82;;;24.60;96.70;;;;;;5046598;28;20048;-72
2023/09/04 06:40:57;;;;;;;8.10;4.93;;;24.70;96.70;;;;;;5054055;28;20532;-72
2023/09/04 06:43:27;;;;;;;8.82;5.28;;;24.80;96.70;;;;;;5042673;28;20057;-72
2023/09/04 06:45:55;;;;;;;6.47;4.40;;;24.90;96.70;;;;;;5029573;28;20490;-73
2023/09/04 06:48:26;;;;;;;9.00;4.10;;;25.00;96.70;;;;;;5045605;28;20050;-73
2023/09/04 06:50:55;;;;;;;5.70;4.10;;;25.10;96.70;;;;;;5054407;28;20049;-72
2023/09/04 06:53:24;;;;;;;7.57;3.92;;;25.20;96.70;;;;;;5045844;28;20103;-72
2023/09/04 06:55:52;;;;;;;8.55;4.18;;;25.30;96.70;;;;;;5045694;28;20132;-72
2023/09/04 06:58:20;;;;;;;5.22;3.50;;;25.30;96.70;;;;;;5045730;28;20495;-71
2023/09/04 07:00:51;;;;;;;5.95;4.30;;;25.40;96.70;;;;;;5064002;28;20052;-73
2023/09/04 07:03:21;;;;;;;7.50;3.28;;;25.40;96.70;;;;;;5046212;28;20163;-72
2023/09/04 07:05:51;;;;;;;6.32;4.10;;;25.50;96.70;;;;;;5048013;28;20057;-72
2023/09/04 07:08:19;;;;;;;6.22;3.92;;;25.50;96.70;;;;;;5033317;28;20443;-72
2023/09/04 07:10:48;;;;;;;7.97;3.80;;;25.60;96.70;;;;;;5050136;28;20046;-72
2023/09/04 07:13:18;;;;;;;9.32;4.45;;;25.60;96.70;;;;;;5053793;28;20044;-72
2023/09/04 07:15:46;;;;;;;8.25;3.88;;;25.70;96.70;;;;;;5065262;28;20044;-72
2023/09/04 07:18:14;;;;;;;10.25;4.15;;;25.80;96.70;;;;;;5049264;28;20426;-72
2023/09/04 07:20:43;;;;;;;7.20;3.92;;;25.80;96.70;;;;;;5055725;28;20053;-71
2023/09/04 07:23:13;;;;;;;15.95;5.10;;;25.90;96.70;;;;;;5049282;28;20494;-71
2023/09/04 07:25:57;;;;;;;9.60;4.43;;;25.90;96.70;;;;;;5049059;28;20048;-72
2023/09/04 07:28:25;;;;;;;7.63;3.60;;;26.00;96.70;;;;;;5058945;28;20075;-72
2023/09/04 07:31:13;;;;;;;6.80;3.45;;;26.10;96.70;;;;;;5045884;28;20106;-71
2023/09/04 07:33:41;;;;;;;6.60;3.10;;;26.20;96.70;;;;;;5048877;28;20049;-73
2023/09/04 07:36:10;;;;;;;13.18;4.30;;;26.30;96.70;;;;;;5048907;28;20131;-72
2023/09/04 07:38:40;;;;;;;8.35;3.35;;;26.40;96.70;;;;;;5047608;28;20533;-73
2023/09/04 07:41:08;;;;;;;8.85;3.38;;;26.40;96.70;;;;;;5048722;28;20119;-72
2023/09/04 07:43:36;;;;;;;4.28;2.47;;;26.50;96.70;;;;;;5049306;28;20649;-72
2023/09/04 07:46:05;;;;;;;5.75;2.53;;;26.70;96.70;;;;;;5048970;28;20148;-73
2023/09/04 07:48:36;;;;;;;8.35;3.30;;;26.80;96.70;;;;;;5049139;28;20052;-72
2023/09/04 07:51:06;;;;;;;9.95;3.08;;;26.90;96.70;;;;;;5057318;28;20048;-72
2023/09/04 07:53:51;;;;;;;4.03;1.80;;;27.10;96.70;;;;;;5054257;28;20528;-73
2023/09/04 07:56:22;;;;;;;3.58;1.45;;;27.20;96.70;;;;;;5048676;28;20068;-72
2023/09/04 07:58:51;;;;;;;5.53;1.60;;;27.20;96.70;;;;;;5047954;28;20583;-72
2023/09/04 08:01:20;;;;;;;2.28;1.40;;;27.20;96.70;;;;;;5048879;28;20052;-72
2023/09/04 08:03:48;;;;;;;3.08;1.58;;;27.30;96.70;;;;;;5049120;28;20051;-72
2023/09/04 08:06:18;;;;;;;4.00;1.35;;;27.30;96.70;;;;;;5048533;28;20059;-72
2023/09/04 08:08:47;;;;;;;8.15;2.35;;;27.40;96.70;;;;;;5048748;28;20052;-72
2023/09/04 09:35:31;;;;;;;4.88;1.50;;;28.70;96.70;;;;;;5114377;27;20457;-79
2023/09/04 09:38:00;;;;;;;2.03;0.95;;;29.30;96.70;;;;;;5101571;28;20089;-76
2023/09/04 09:40:29;;;;;;;1.90;1.05;;;29.40;96.70;;;;;;5094500;28;20059;-79
2023/09/04 09:42:59;;;;;;;2.58;1.20;;;29.60;96.70;;;;;;5102848;28;20050;-78
2023/09/04 09:45:31;;;;;;;2.00;1.10;;;29.80;96.70;;;;;;5117438;28;20349;-78
2023/09/04 09:48:03;;;;;;;3.30;1.45;;;29.80;96.70;;;;;;5121828;27;20149;-78
2023/09/04 09:50:35;;;;;;;2.05;0.95;;;29.80;96.70;;;;;;5122400;28;20067;-78
2023/09/04 09:53:04;;;;;;;2.47;1.30;;;29.80;96.70;;;;;;5104175;28;20060;-78
2023/09/04 09:55:33;;;;;;;1.50;0.90;;;29.80;96.70;;;;;;5122649;28;20413;-75
2023/09/04 09:58:03;;;;;;;2.25;1.40;;;29.70;96.70;;;;;;5122268;28;20123;-79
2023/09/04 10:00:34;;;;;;;9.98;2.03;;;29.60;96.70;;;;;;5102031;28;20043;-76
2023/09/04 10:03:02;;;;;;;1.73;0.90;;;29.70;96.70;;;;;;5140912;27;20047;-76
2023/09/04 10:05:34;;;;;;;3.15;1.15;;;29.90;96.70;;;;;;5103887;28;20043;-76
2023/09/04 10:08:05;;;;;;;2.38;1.30;;;30.00;96.70;;;;;;5103913;28;20070;-76
2023/09/04 10:10:38;;;;;;;2.45;1.40;;;30.10;96.70;;;;;;5104415;28;20462;-75
2023/09/04 10:13:14;;;;;;;6.38;1.23;;;30.20;96.70;;;;;;5103712;28;20777;-76
2023/09/04 10:15:42;;;;;;;;;;;30.40;96.70;;;;;;5114814;28;20046;-77
2023/09/04 10:18:14;;;;;;;3.00;1.30;;;30.60;96.70;;;;;;5104125;28;19923;-76
2023/09/04 10:20:44;;;;;;;1.88;1.27;;;30.70;96.70;;;;;;5122126;28;20061;-76
2023/09/04 10:23:19;;;;;;;3.08;1.00;;;30.80;96.70;;;;;;5104088;28;20047;-76
2023/09/04 10:25:53;;;;;;;2.35;1.13;;;31.00;96.70;;;;;;5113780;28;20049;-75
2023/09/04 10:28:27;;;;;;;4.40;1.65;;;31.00;96.70;;;;;;5103731;28;20043;-76
2023/09/04 10:31:10;;;;;;;2.47;1.40;;;31.10;96.70;;;;;;5121819;28;20047;-76
2023/09/04 10:33:38;;;;;;;2.55;1.52;;;31.00;96.70;;;;;;5103013;28;20126;-75
2023/09/04 10:36:09;;;;;;;3.33;1.40;;;31.00;96.70;;;;;;5089063;28;20052;-77
2023/09/04 10:38:38;;;;;;;2.97;1.52;;;31.00;96.70;;;;;;5107902;28;20047;-77
2023/09/04 10:41:10;;;;;;;2.88;1.50;;;31.30;96.70;;;;;;5089807;28;20052;-76
2023/09/04 10:43:39;;;;;;;1.83;1.33;;;31.50;96.70;;;;;;5107489;28;20043;-76
2023/09/04 10:46:08;;;;;;;3.58;1.20;;;31.80;96.70;;;;;;5089772;28;20500;-75
2023/09/04 10:48:43;;;;;;;3.28;1.55;;;31.90;96.70;;;;;;5089755;28;20088;-76
2023/09/04 10:51:30;;;;;;;3.22;1.33;;;31.60;96.70;;;;;;5090819;28;20512;-76
2023/09/04 10:54:01;;;;;;;3.33;1.58;;;31.40;96.70;;;;;;5106272;28;20066;-75
2023/09/04 10:56:49;;;;;;;3.75;1.35;;;31.50;96.70;;;;;;5089644;28;20126;-76
2023/09/04 10:59:17;;;;;;;4.38;1.48;;;31.70;96.70;;;;;;5107212;28;20047;-76
2023/09/04 11:01:45;;;;;;;3.03;1.50;;;31.60;96.70;;;;;;5089630;28;20558;-77
2023/09/04 11:04:31;;;;;;;3.25;1.40;;;31.50;96.70;;;;;;5072261;28;20449;-76
2023/09/04 11:07:28;;;;;;;2.67;1.25;;;31.00;96.70;;;;;;5107821;28;20134;-76
2023/09/04 11:10:32;;;;;;;2.88;1.20;;;30.60;96.70;;;;;;5043658;28;20059;-76
2023/09/04 11:13:00;;;;;;;4.65;1.40;;;30.70;96.70;;;;;;5089155;28;20047;-76
2023/09/04 11:15:32;;;;;;;2.45;1.30;;;30.90;96.70;;;;;;5107009;28;20044;-76
2023/09/04 11:18:00;;;;;;;4.82;1.30;;;31.40;96.70;;;;;;5098575;28;20039;-76
2023/09/04 11:20:42;;;;;;;4.20;1.63;;;31.70;96.70;;;;;;5072429;28;20046;-76
2023/09/04 11:23:12;;;;;;;2.90;1.13;;;31.70;96.70;;;;;;5106518;28;20050;-76
2023/09/04 11:25:43;;;;;;;2.33;1.10;;;31.50;96.70;;;;;;5109319;27;20039;-76
2023/09/04 11:28:11;;;;;;;2.33;1.38;;;31.40;96.70;;;;;;5098671;28;20406;-76
2023/09/04 11:30:40;;;;;;;3.00;1.35;;;31.50;96.70;;;;;;5088562;28;20040;-76
2023/09/04 11:33:12;;;;;;;5.00;1.75;;;31.60;96.70;;;;;;5083938;28;20501;-75
2023/09/04 11:35:40;;;;;;;3.55;1.30;;;31.90;96.70;;;;;;5088828;28;20074;-76
2023/09/04 11:38:26;;;;;;;2.28;1.27;;;31.90;96.70;;;;;;5106445;28;20460;-76
2023/09/04 11:40:54;;;;;;;2.53;1.27;;;32.10;96.70;;;;;;5106794;28;20088;-76
2023/09/04 11:43:24;;;;;;;3.47;1.30;;;32.40;96.70;;;;;;5088018;28;20046;-75
2023/09/04 11:45:55;;;;;;;2.83;1.13;;;32.50;96.70;;;;;;5071298;28;20138;-76
2023/09/04 11:48:24;;;;;;;3.70;1.52;;;32.50;96.70;;;;;;5087552;28;20060;-76
2023/09/04 11:50:53;;;;;;;4.70;1.38;;;32.30;96.70;;;;;;5096208;28;20043;-75
2023/09/04 11:53:22;;;;;;;3.78;1.40;;;32.50;96.70;;;;;;5106589;28;20045;-76
2023/09/04 11:55:53;;;;;;;2.00;1.30;;;32.50;96.70;;;;;;5088981;28;20512;-75
2023/09/04 11:58:22;;;;;;;3.30;1.27;;;32.60;96.70;;;;;;5106144;28;20500;-76
2023/09/04 12:00:50;;;;;;;5.30;1.77;;;33.00;96.70;;;;;;5088210;28;20046;-76
2023/09/04 12:03:18;;;;;;;3.25;1.50;;;33.20;96.70;;;;;;5096589;28;20063;-76
2023/09/04 12:05:51;;;;;;;3.13;1.38;;;33.10;96.70;;;;;;5088646;28;20043;-76
2023/09/04 12:08:19;;;;;;;2.40;1.40;;;33.20;96.70;;;;;;5071316;28;20419;-76
2023/09/04 12:10:49;;;;;;;2.10;1.60;;;33.10;96.70;;;;;;5106675;28;20056;-76
2023/09/04 12:13:23;;;;;;;2.15;1.50;;;33.30;96.70;;;;;;5087416;28;20401;-76
2023/09/04 12:15:51;;;;;;;2.90;1.35;;;33.50;96.70;;;;;;5096150;28;20058;-77
2023/09/04 12:18:22;;;;;;;1.73;1.20;;;33.70;96.70;;;;;;5088424;28;20035;-76
2023/09/04 12:20:53;;;;;;;2.50;1.27;;;33.90;96.70;;;;;;5106302;28;20055;-75
2023/09/04 12:23:37;;;;;;;2.42;1.65;;;34.00;96.70;;;;;;5087888;28;20409;-76
2023/09/04 12:26:05;;;;;;;6.68;1.50;;;33.90;96.70;;;;;;5098605;28;20039;-76
2023/09/04 12:28:36;;;;;;;3.08;1.25;;;33.80;96.70;;;;;;5105350;28;20039;-76
2023/09/04 12:31:07;;;;;;;2.08;1.38;;;33.70;96.70;;;;;;5071205;28;20063;-76
2023/09/04 12:33:38;;;;;;;1.33;1.23;;;33.70;96.70;;;;;;5105634;28;20056;-77
2023/09/04 12:36:08;;;;;;;3.28;1.50;;;33.70;96.70;;;;;;5092791;28;20044;-76
2023/09/04 12:38:36;;;;;;;4.00;1.13;;;33.70;96.70;;;;;;5105877;28;20044;-77
2023/09/04 12:41:05;;;;;;;3.70;1.30;;;33.90;96.70;;;;;;5105932;28;20055;-76
2023/09/04 12:43:34;;;;;;;3.85;1.40;;;34.00;96.70;;;;;;5105428;28;20035;-76
2023/09/04 12:46:03;;;;;;;2.20;1.50;;;34.00;96.70;;;;;;5084594;28;20701;-76
2023/09/04 12:48:31;;;;;;;2.58;1.40;;;34.10;96.70;;;;;;5087528;28;20530;-76
2023/09/04 12:50:59;;;;;;;1.95;1.52;;;33.90;96.70;;;;;;5105585;28;20051;-76
2023/09/04 12:53:28;;;;;;;2.60;1.40;;;33.70;96.70;;;;;;5105676;28;20070;-75
2023/09/04 12:55:56;;;;;;;2.58;1.45;;;33.90;96.70;;;;;;5098080;28;20528;-76
2023/09/04 12:58:24;;;;;;;2.42;1.40;;;34.00;96.70;;;;;;5104821;28;20507;-76
2023/09/04 13:00:54;;;;;;;2.53;1.50;;;34.00;96.70;;;;;;5087538;28;20078;-76
2023/09/04 13:03:23;;;;;;;2.28;1.58;;;34.00;96.70;;;;;;5096938;28;20050;-76
2023/09/04 13:05:52;;;;;;;3.05;1.98;;;34.10;96.70;;;;;;5087474;28;20112;-76
2023/09/04 13:08:20;;;;;;;5.10;1.80;;;34.00;96.70;;;;;;5086818;28;20050;-76
2023/09/04 13:10:48;;;;;;;2.42;1.40;;;34.00;96.70;;;;;;5087476;28;20043;-76
2023/09/04 13:13:17;;;;;;;2.72;1.20;;;34.10;96.70;;;;;;5104901;28;20433;-76
2023/09/04 13:15:44;;;;;;;2.10;1.33;;;34.20;96.70;;;;;;5086911;28;20150;-75
2023/09/04 13:18:14;;;;;;;3.45;1.55;;;34.20;96.70;;;;;;5092061;28;20071;-77
2023/09/04 13:20:44;;;;;;;3.17;1.70;;;34.20;96.70;;;;;;5105230;28;20043;-76
2023/09/04 13:23:15;;;;;;;2.70;1.65;;;34.20;96.70;;;;;;5085876;28;20576;-76
2023/09/04 13:25:42;;;;;;;1.63;1.20;;;34.40;96.70;;;;;;5103306;28;20043;-76
2023/09/04 13:28:11;;;;;;;1.80;1.60;;;34.40;96.70;;;;;;5086178;28;20557;-76
2023/09/04 13:30:39;;;;;;;1.90;1.30;;;34.20;96.70;;;;;;5086859;28;20039;-75
2023/09/04 13:33:07;;;;;;;2.30;1.35;;;34.10;96.70;;;;;;5086473;28;20044;-76
2023/09/04 13:35:36;;;;;;;1.92;1.42;;;34.00;96.70;;;;;;5087124;28;20050;-76
2023/09/04 13:38:04;;;;;;;2.00;1.33;;;34.20;96.70;;;;;;5086380;28;20050;-75
2023/09/04 13:40:35;;;;;;;2.72;1.60;;;34.10;96.70;;;;;;5104822;28;20120;-76
2023/09/04 13:43:03;;;;;;;2.13;1.38;;;34.20;96.70;;;;;;5069663;28;20051;-76
2023/09/04 13:45:31;;;;;;;3.15;1.40;;;34.40;96.70;;;;;;5086759;28;20044;-76
2023/09/04 13:47:59;;;;;;;2.55;1.38;;;34.60;96.70;;;;;;5086906;28;20563;-76
2023/09/04 13:50:27;;;;;;;4.50;1.40;;;34.90;96.70;;;;;;5104963;28;20044;-76
2023/09/04 13:52:57;;;;;;;2.38;1.20;;;35.20;96.70;;;;;;5086950;28;20051;-76
2023/09/04 13:55:26;;;;;;;1.73;1.20;;;35.40;96.70;;;;;;5105013;28;20522;-76
2023/09/04 13:57:53;;;;;;;1.98;1.35;;;35.60;96.70;;;;;;5086642;28;20040;-76
2023/09/04 14:00:22;;;;;;;3.92;1.50;;;35.80;96.70;;;;;;5085905;28;20078;-75
2023/09/04 14:02:50;;;;;;;3.40;1.58;;;35.90;96.70;;;;;;5104870;28;20040;-76
2023/09/04 14:05:18;;;;;;;2.53;1.17;;;35.80;96.70;;;;;;5104647;28;20047;-75
2023/09/04 14:07:46;;;;;;;3.35;1.13;;;35.70;96.70;;;;;;5069602;28;20408;-76
2023/09/04 14:10:15;;;;;;;2.65;1.40;;;35.70;96.70;;;;;;5105763;28;20140;-77
2023/09/04 14:12:43;;;;;;;2.95;1.50;;;36.00;96.70;;;;;;5090039;28;20138;-75
2023/09/04 14:15:12;;;;;;;2.00;1.60;;;36.20;96.70;;;;;;5108555;28;20075;-77
2023/09/04 14:17:40;;;;;;;2.83;1.40;;;36.40;96.70;;;;;;5090478;28;20039;-77
2023/09/04 14:20:09;;;;;;;1.98;1.63;;;36.40;96.70;;;;;;5094007;28;20051;-76
2023/09/04 14:22:36;;;;;;;2.40;1.10;;;36.40;96.70;;;;;;5107996;28;20039;-76
2023/09/04 14:25:07;;;;;;;3.60;1.30;;;36.80;96.70;;;;;;5098086;28;20421;-76
2023/09/04 14:27:37;;;;;;;2.55;1.38;;;37.10;96.70;;;;;;5073346;28;20043;-77